Ahbra Franco — WDG8801 — position and weather

sailwx.info

Track history (hours):
 
Tides and Currents Weather Stations Pressure Air Temp Water Temp Dewpoint Dewpoint Depression Visibility Wind Speed Wind Dir Waves Ship Positions

Ahbra Franco

Owner: Harley Marine Services, Inc, Seattle, WA. More information available from US FCC via Universal Licensing System and Coast Guard Vessel Documentation Center.

Last reported at 2018-Jul-22 16:25 UTC. Time now 2018-Jul-22 16:38 UTC.
Position N 38°03' W 122°15'.

Length 33 m; draft 6.1 m.

Type: Tug. MMSI: 367581220.

Date/timePositionNaut miles runAvg speedWind from/ knotsBaromVisibWave heightAir tempDewpointWater temp
2018-Jul-22 16:25N 38°03' W 122°15'0 0.0
2018-Jul-22 15:58N 38°03' W 122°15'0 0.0
2018-Jul-22 14:41N 38°03' W 122°15'0 0.3
2018-Jul-22 14:30N 38°03' W 122°15'0 0.8
2018-Jul-22 14:00N 38°04' W 122°15'4 0.4
2018-Jul-22 04:33N 38°03' W 122°10'111.1
2018-Jul-22 04:30N 38°03' W 122°11'4 7.6
2018-Jul-22 04:00N 38°03' W 122°16'3 6.9
2018-Jul-22 03:30N 38°03' W 122°20'611.1
2018-Jul-22 03:00N 37°59' W 122°25'510.8
2018-Jul-22 02:30N 37°54' W 122°25'5 9.9
2018-Jul-22 02:00N 37°50' W 122°22'4 8.2
2018-Jul-22 01:30N 37°48' W 122°17'0 0.3
2018-Jul-22 01:00N 37°48' W 122°17'0 0.0
2018-Jul-22 00:30N 37°48' W 122°17'0 0.0
2018-Jul-22 00:00N 37°48' W 122°17'0 0.0
2018-Jul-21 23:30N 37°48' W 122°17'0 0.0
2018-Jul-21 23:00N 37°48' W 122°17'0 0.0
2018-Jul-21 22:30N 37°48' W 122°17'0 0.0
2018-Jul-21 22:00N 37°48' W 122°17'0 0.0
2018-Jul-21 21:30N 37°48' W 122°17'0 0.0
2018-Jul-21 21:00N 37°48' W 122°17'0 0.0
2018-Jul-21 20:30N 37°48' W 122°17'0 0.0
2018-Jul-21 20:00N 37°48' W 122°17'0 0.0
2018-Jul-21 19:30N 37°48' W 122°17'0 0.0
2018-Jul-21 19:00N 37°48' W 122°17'0 0.0
2018-Jul-21 18:30N 37°48' W 122°17'0 0.0
2018-Jul-21 18:00N 37°48' W 122°17'0 0.0
2018-Jul-21 17:30N 37°48' W 122°17'0 0.0
2018-Jul-21 17:00N 37°48' W 122°17'0 0.0
2018-Jul-21 16:30N 37°48' W 122°17'0 0.0
2018-Jul-21 16:00N 37°48' W 122°17'0 0.0
2018-Jul-21 15:30N 37°48' W 122°17'0 0.0
2018-Jul-21 15:00N 37°48' W 122°17'0 0.0
2018-Jul-21 14:30N 37°48' W 122°17'0 0.0
2018-Jul-21 14:00N 37°48' W 122°17'3 5.3
2018-Jul-21 13:31N 37°49' W 122°20'0 0.8
2018-Jul-21 13:01N 37°49' W 122°20'0 0.4
2018-Jul-21 12:31N 37°49' W 122°20'2 3.3
2018-Jul-21 12:00N 37°48' W 122°22'4 7.7
2018-Jul-21 11:30N 37°48' W 122°17'0 0.0
2018-Jul-21 11:00N 37°48' W 122°17'0 0.0
2018-Jul-21 10:30N 37°48' W 122°17'0 0.0
2018-Jul-21 10:00N 37°48' W 122°17'0 0.0
2018-Jul-21 09:30N 37°48' W 122°17'0 0.0
2018-Jul-21 09:00N 37°48' W 122°17'0 0.0
2018-Jul-21 08:30N 37°48' W 122°17'0 0.0
2018-Jul-21 08:00N 37°48' W 122°17'0 0.0
2018-Jul-21 07:30N 37°48' W 122°17'0 0.0
2018-Jul-21 07:00N 37°48' W 122°17'0 0.0
2018-Jul-21 06:30N 37°48' W 122°17'0 0.0
2018-Jul-21 06:00N 37°48' W 122°17'0 0.0
2018-Jul-21 05:30N 37°48' W 122°17'0 0.0
2018-Jul-21 05:00N 37°48' W 122°17'0 0.0
2018-Jul-21 04:30N 37°48' W 122°17'0 0.0
2018-Jul-21 04:00N 37°48' W 122°17'0 0.0
2018-Jul-21 03:30N 37°48' W 122°17'0 0.0
2018-Jul-21 03:00N 37°48' W 122°17'0 0.0
2018-Jul-21 02:30N 37°48' W 122°17'0 0.0
2018-Jul-21 02:00N 37°48' W 122°17'0 0.0
2018-Jul-21 01:30N 37°48' W 122°17'0 0.0
2018-Jul-21 01:00N 37°48' W 122°17'0 0.0
2018-Jul-21 00:30N 37°48' W 122°17'0 0.0
2018-Jul-21 00:00N 37°48' W 122°17'0 0.0
2018-Jul-20 23:30N 37°48' W 122°17'0 0.0
2018-Jul-20 23:00N 37°48' W 122°17'0 0.0
2018-Jul-20 22:30N 37°48' W 122°17'0 0.0
2018-Jul-20 22:00N 37°48' W 122°17'0 0.0
2018-Jul-20 21:30N 37°48' W 122°17'0 0.0
2018-Jul-20 21:00N 37°48' W 122°17'0 0.0
2018-Jul-20 20:30N 37°48' W 122°17'0 0.0
2018-Jul-20 20:00N 37°48' W 122°17'0 0.0
2018-Jul-20 15:56N 37°48' W 122°17'0 0.0
2018-Jul-20 15:30N 37°48' W 122°17'0 0.0
2018-Jul-20 15:00N 37°48' W 122°17'0 0.0
2018-Jul-20 14:30N 37°48' W 122°17'3 6.0
2018-Jul-20 14:00N 37°48' W 122°21'3 6.8
2018-Jul-20 13:30N 37°45' W 122°23'0 0.5
2018-Jul-20 13:00N 37°45' W 122°22'2 4.8
2018-Jul-20 12:30N 37°48' W 122°23'3 5.7
2018-Jul-20 12:00N 37°48' W 122°19'2 3.4
2018-Jul-20 11:30N 37°48' W 122°17'0 0.0
2018-Jul-20 11:00N 37°48' W 122°17'0 0.0
2018-Jul-20 10:30N 37°48' W 122°17'0 0.0
2018-Jul-20 10:00N 37°48' W 122°17'0 0.0
2018-Jul-20 09:30N 37°48' W 122°17'0 0.0
2018-Jul-20 09:00N 37°48' W 122°17'0 0.0
2018-Jul-20 08:30N 37°48' W 122°17'0 0.0
2018-Jul-20 08:00N 37°48' W 122°17'0 0.0
2018-Jul-20 07:30N 37°48' W 122°17'0 0.0
2018-Jul-20 07:00N 37°48' W 122°17'0 0.0
2018-Jul-20 06:30N 37°48' W 122°17'0 0.0
2018-Jul-20 06:00N 37°48' W 122°17'0 0.0
2018-Jul-20 05:30N 37°48' W 122°17'0 0.0
2018-Jul-20 05:00N 37°48' W 122°17'0 0.0
2018-Jul-20 04:30N 37°48' W 122°17'1 1.0
2018-Jul-20 04:00N 37°48' W 122°18'1 1.1
2018-Jul-20 03:30N 37°48' W 122°18'1 1.8
2018-Jul-20 03:00N 37°48' W 122°17'1 1.2
2018-Jul-20 02:30N 37°48' W 122°18'2 3.7
2018-Jul-20 02:00N 37°48' W 122°20'1 1.3
2018-Jul-20 01:30N 37°48' W 122°21'3 6.4
2018-Jul-20 01:00N 37°48' W 122°17'0 0.0
2018-Jul-20 00:30N 37°48' W 122°17'0 0.0
2018-Jul-20 00:00N 37°48' W 122°17'0 0.0
2018-Jul-19 23:30N 37°48' W 122°17'0 0.0
2018-Jul-19 23:00N 37°48' W 122°17'0 0.0
2018-Jul-19 22:30N 37°48' W 122°17'0 0.0
2018-Jul-19 22:00N 37°48' W 122°17'0 0.0
2018-Jul-19 21:30N 37°48' W 122°17'0 0.2
2018-Jul-19 21:00N 37°47' W 122°17'0 0.0
2018-Jul-19 20:30N 37°47' W 122°17'0 0.1
2018-Jul-19 20:00N 37°48' W 122°17'5 9.4
2018-Jul-19 19:30N 37°49' W 122°23'510.8
2018-Jul-19 19:00N 37°54' W 122°25'611.1
2018-Jul-19 18:30N 37°60' W 122°25'811.5
2018-Jul-19 17:47N 38°04' W 122°16'312.2
2018-Jul-19 17:30N 38°03' W 122°11'5 9.6
2018-Jul-19 16:57N 38°03' W 122°05'4 9.8
2018-Jul-19 16:30N 38°04' W 121°59'5 9.2
2018-Jul-19 16:00N 38°03' W 121°53'5 8.2
2018-Jul-19 15:22N 38°01' W 121°47'0 0.0
2018-Jul-19 14:54N 38°01' W 121°47'1 1.5
2018-Jul-19 14:00N 38°01' W 121°49'3 6.6
2018-Jul-19 13:29N 38°02' W 121°53'12 5.6
2018-Jul-19 11:17N 38°02' W 122°08'710.0
2018-Jul-19 10:38N 38°03' W 122°17'210.6
2018-Jul-19 10:29N 38°03' W 122°19'511.1
2018-Jul-19 10:00N 38°00' W 122°24'510.9
2018-Jul-19 09:30N 37°55' W 122°25'2 4.7
2018-Jul-19 09:00N 37°55' W 122°22'0 0.0
2018-Jul-19 08:30N 37°55' W 122°22'0 0.0
2018-Jul-19 08:00N 37°55' W 122°22'0 0.0
2018-Jul-19 07:30N 37°55' W 122°22'0 0.0
2018-Jul-19 07:00N 37°55' W 122°22'0 0.0
2018-Jul-19 06:30N 37°55' W 122°22'0 0.0
2018-Jul-19 06:00N 37°55' W 122°22'0 0.0
2018-Jul-19 05:30N 37°55' W 122°22'0 0.0
2018-Jul-19 05:00N 37°55' W 122°22'0 0.0
2018-Jul-19 04:30N 37°55' W 122°22'0 0.0
2018-Jul-19 04:00N 37°55' W 122°22'0 0.0
2018-Jul-19 03:30N 37°55' W 122°22'0 0.0
2018-Jul-19 03:00N 37°55' W 122°22'0 0.0
2018-Jul-19 02:30N 37°55' W 122°22'0 0.0
2018-Jul-19 02:00N 37°55' W 122°22'0 0.0
2018-Jul-19 01:30N 37°55' W 122°22'1 2.3
2018-Jul-19 01:00N 37°54' W 122°23'1 2.2
2018-Jul-19 00:30N 37°55' W 122°22'3 5.4
2018-Jul-19 00:00N 37°54' W 122°25'510.2
2018-Jul-18 23:30N 37°50' W 122°22'2 3.1
2018-Jul-18 23:00N 37°49' W 122°20'1 1.5
2018-Jul-18 22:31N 37°49' W 122°19'2 4.5
2018-Jul-18 22:00N 37°48' W 122°22'3 6.9
2018-Jul-18 21:30N 37°48' W 122°18'1 1.3
2018-Jul-18 21:00N 37°48' W 122°17'0 0.0
2018-Jul-18 20:30N 37°48' W 122°17'0 0.0
2018-Jul-18 20:00N 37°48' W 122°17'0 0.0
2018-Jul-18 19:30N 37°48' W 122°17'0 0.0
2018-Jul-18 19:00N 37°48' W 122°17'0 0.0
2018-Jul-18 18:30N 37°48' W 122°17'0 0.0
2018-Jul-18 18:00N 37°48' W 122°17'0 0.0
2018-Jul-18 17:30N 37°48' W 122°17'0 0.0
2018-Jul-18 17:00N 37°48' W 122°17'0 0.0
2018-Jul-18 16:30N 37°48' W 122°17'0 0.0
2018-Jul-18 16:00N 37°48' W 122°17'0 0.0
2018-Jul-18 15:30N 37°48' W 122°17'0 0.0
2018-Jul-18 15:00N 37°48' W 122°17'0 0.0
2018-Jul-18 14:30N 37°48' W 122°17'0 0.0
2018-Jul-18 13:30N 37°48' W 122°17'0 0.0
2018-Jul-18 13:00N 37°48' W 122°17'2 3.2
2018-Jul-18 12:30N 37°48' W 122°19'0 0.4
2018-Jul-18 12:00N 37°48' W 122°19'3 5.9
2018-Jul-18 11:30N 37°47' W 122°23'4 3.8
2018-Jul-18 10:30N 37°48' W 122°18'1 1.6
2018-Jul-18 10:00N 37°48' W 122°17'0 0.0
2018-Jul-18 09:30N 37°48' W 122°17'0 0.0
2018-Jul-18 09:00N 37°48' W 122°17'0 0.0
2018-Jul-18 08:30N 37°48' W 122°17'0 0.0
2018-Jul-18 08:00N 37°48' W 122°17'0 0.0
2018-Jul-18 07:30N 37°48' W 122°17'0 0.0
2018-Jul-18 07:00N 37°48' W 122°17'3 6.2
2018-Jul-18 06:30N 37°46' W 122°21'1 1.6
2018-Jul-18 06:00N 37°46' W 122°21'4 8.7
2018-Jul-18 05:30N 37°49' W 122°26'4 7.7
2018-Jul-18 05:00N 37°49' W 122°31'1 1.3
2018-Jul-18 04:30N 37°49' W 122°31'0 0.3
2018-Jul-18 04:00N 37°49' W 122°31'1 3.0
2018-Jul-18 03:30N 37°49' W 122°29'510.7
2018-Jul-18 03:00N 37°48' W 122°23'2 4.2
2018-Jul-18 02:30N 37°49' W 122°20'0 0.0
2018-Jul-18 02:00N 37°49' W 122°20'0 0.0
2018-Jul-18 01:30N 37°49' W 122°20'0 0.0
2018-Jul-18 01:00N 37°49' W 122°20'0 0.0
2018-Jul-18 00:30N 37°49' W 122°20'2 3.2
2018-Jul-18 00:00N 37°48' W 122°19'0 0.1
2018-Jul-17 23:30N 37°48' W 122°19'0 0.9
2018-Jul-17 23:00N 37°48' W 122°19'1 2.3
2018-Jul-17 22:30N 37°49' W 122°20'0 0.0
2018-Jul-17 21:58N 37°49' W 122°20'0 0.0
2018-Jul-17 21:30N 37°49' W 122°20'2 3.4
2018-Jul-17 21:00N 37°47' W 122°21'4 7.8
2018-Jul-17 20:30N 37°43' W 122°20'4 8.0
2018-Jul-17 19:59N 37°39' W 122°19'4 8.4
2018-Jul-17 19:30N 37°36' W 122°16'2 0.9
2018-Jul-17 16:59N 37°37' W 122°18'5 9.1
2018-Jul-17 16:29N 37°42' W 122°20'4 8.8
2018-Jul-17 16:00N 37°46' W 122°21'3 5.7
2018-Jul-17 15:30N 37°48' W 122°18'1 1.5
2018-Jul-17 15:00N 37°48' W 122°17'0 0.0
2018-Jul-17 14:30N 37°48' W 122°17'0 0.0
2018-Jul-17 14:00N 37°48' W 122°17'0 0.0
2018-Jul-17 13:30N 37°48' W 122°17'0 0.0
2018-Jul-17 13:01N 37°48' W 122°17'0 0.0
2018-Jul-17 12:30N 37°48' W 122°17'0 0.0
2018-Jul-17 12:00N 37°48' W 122°17'0 0.8
2018-Jul-17 11:30N 37°48' W 122°18'4 8.8
2018-Jul-17 11:00N 37°49' W 122°23'5 9.2
2018-Jul-17 10:30N 37°53' W 122°25'4 7.7
2018-Jul-17 10:00N 37°57' W 122°26'4 7.6
2018-Jul-17 09:30N 38°01' W 122°24'4 8.4
2018-Jul-17 09:00N 38°03' W 122°20'5 9.4
2018-Jul-17 08:30N 38°04' W 122°14'5 9.1
2018-Jul-17 08:00N 38°02' W 122°08'0 0.0
2018-Jul-17 06:24N 38°02' W 122°08'0 0.0
2018-Jul-17 05:59N 38°02' W 122°08'0 0.0
2018-Jul-17 05:30N 38°02' W 122°08'0 0.0
2018-Jul-17 05:00N 38°02' W 122°08'0 0.4
2018-Jul-17 04:30N 38°02' W 122°08'4 7.6
2018-Jul-17 04:00N 38°04' W 122°13'2 4.3
2018-Jul-17 03:30N 38°03' W 122°16'5 8.2
2018-Jul-17 02:57N 38°02' W 122°21'4 9.2
2018-Jul-17 02:30N 37°59' W 122°25'4 8.8
2018-Jul-17 02:00N 37°55' W 122°25'5 9.7
2018-Jul-17 01:30N 37°51' W 122°23'510.2
2018-Jul-17 01:00N 37°48' W 122°18'0 0.4
2018-Jul-17 00:30N 37°48' W 122°18'7 7.0
2018-Jul-16 23:30N 37°41' W 122°20'6 9.4
2018-Jul-16 22:54N 37°36' W 122°16'3 8.7
2018-Jul-16 22:30N 37°34' W 122°12'3 5.8
2018-Jul-16 22:00N 37°31' W 122°13'0 0.5
2018-Jul-16 21:14N 37°31' W 122°12'1 5.4
2018-Jul-16 20:59N 37°32' W 122°12'3 5.7
2018-Jul-16 20:24N 37°35' W 122°15'0 0.5
2018-Jul-16 20:00N 37°35' W 122°15'4 6.5
2018-Jul-16 19:22N 37°38' W 122°18'3 9.6
2018-Jul-16 19:00N 37°41' W 122°20'510.6
2018-Jul-16 18:30N 37°47' W 122°21'2 3.6
2018-Jul-16 18:00N 37°48' W 122°21'0 0.0
2018-Jul-16 17:30N 37°48' W 122°21'0 0.0
2018-Jul-16 17:00N 37°48' W 122°21'0 0.0
2018-Jul-16 16:30N 37°48' W 122°21'0 0.0
2018-Jul-16 16:00N 37°48' W 122°21'0 0.0
2018-Jul-16 15:30N 37°48' W 122°21'2 4.8
2018-Jul-16 15:00N 37°48' W 122°18'0 0.3
2018-Jul-16 14:30N 37°48' W 122°17'2 3.1
2018-Jul-16 14:00N 37°48' W 122°19'1 2.9
2018-Jul-16 13:30N 37°48' W 122°18'0 1.0
2018-Jul-16 13:00N 37°48' W 122°18'0 0.9
2018-Jul-16 12:30N 37°48' W 122°18'2 3.7
2018-Jul-16 12:00N 37°48' W 122°20'2 4.7
2018-Jul-16 11:30N 37°48' W 122°23'1 1.2
2018-Jul-16 11:00N 37°48' W 122°22'3 6.3
2018-Jul-16 10:31N 37°48' W 122°18'1 1.8
2018-Jul-16 10:00N 37°48' W 122°17'0 0.0
2018-Jul-16 09:30N 37°48' W 122°17'0 0.0
2018-Jul-16 09:00N 37°48' W 122°17'0 0.0
2018-Jul-16 08:30N 37°48' W 122°17'0 0.0
2018-Jul-16 08:00N 37°48' W 122°17'0 0.0
2018-Jul-16 07:30N 37°48' W 122°17'0 0.0
2018-Jul-16 07:00N 37°48' W 122°17'0 0.0
2018-Jul-16 06:30N 37°48' W 122°17'0 0.0
2018-Jul-16 06:00N 37°48' W 122°17'0 0.0
2018-Jul-16 05:30N 37°48' W 122°17'0 0.0
2018-Jul-16 05:00N 37°48' W 122°17'0 0.0
2018-Jul-16 04:30N 37°48' W 122°17'0 0.0
2018-Jul-16 04:00N 37°48' W 122°17'0 0.0
2018-Jul-16 03:30N 37°48' W 122°17'0 0.0
2018-Jul-16 03:00N 37°48' W 122°17'0 0.9
2018-Jul-16 02:30N 37°48' W 122°18'1 2.8
2018-Jul-16 02:01N 37°48' W 122°19'1 1.1
2018-Jul-16 01:30N 37°48' W 122°20'1 2.6
2018-Jul-16 01:01N 37°48' W 122°22'0 0.5
2018-Jul-16 00:30N 37°48' W 122°21'2 4.3
2018-Jul-16 00:00N 37°48' W 122°19'1 2.0
2018-Jul-15 23:31N 37°48' W 122°17'1 2.5
2018-Jul-15 23:00N 37°48' W 122°19'0 0.6
2018-Jul-15 22:30N 37°48' W 122°19'1 2.0
2018-Jul-15 22:00N 37°48' W 122°21'0 0.0
2018-Jul-15 21:30N 37°48' W 122°21'2 3.9
2018-Jul-15 21:00N 37°46' W 122°21'4 8.0
2018-Jul-15 20:30N 37°42' W 122°20'4 8.2
2018-Jul-15 20:00N 37°38' W 122°19'5 8.0
2018-Jul-15 19:26N 37°35' W 122°15'0 0.0
2018-Jul-15 15:42N 37°35' W 122°15'3 9.5
2018-Jul-15 15:22N 37°37' W 122°17'4 9.1
2018-Jul-15 14:59N 37°40' W 122°20'5 9.4
2018-Jul-15 14:30N 37°45' W 122°21'3 6.7
2018-Jul-15 14:00N 37°48' W 122°19'2 3.4
2018-Jul-15 13:30N 37°48' W 122°17'1 1.7
2018-Jul-15 13:00N 37°48' W 122°18'1 1.2
2018-Jul-15 12:30N 37°48' W 122°19'1 1.5
2018-Jul-15 12:00N 37°48' W 122°18'1 1.9
2018-Jul-15 11:30N 37°48' W 122°19'0 0.0
2018-Jul-15 11:00N 37°48' W 122°19'0 0.1
2018-Jul-15 10:30N 37°48' W 122°19'0 0.1
2018-Jul-15 10:00N 37°48' W 122°19'0 0.3
2018-Jul-15 09:30N 37°48' W 122°19'2 3.0
2018-Jul-15 09:00N 37°48' W 122°17'0 0.0
2018-Jul-15 08:30N 37°48' W 122°17'0 0.0
2018-Jul-15 08:00N 37°48' W 122°17'0 0.0
2018-Jul-15 07:30N 37°48' W 122°17'0 0.0
2018-Jul-15 07:00N 37°48' W 122°17'0 0.0
2018-Jul-15 06:30N 37°48' W 122°17'0 0.0
2018-Jul-15 06:00N 37°48' W 122°17'0 0.0
2018-Jul-15 05:30N 37°48' W 122°17'0 0.0
2018-Jul-15 05:00N 37°48' W 122°17'0 0.0
2018-Jul-15 04:30N 37°48' W 122°17'0 0.0
2018-Jul-15 04:00N 37°48' W 122°17'0 0.0
2018-Jul-15 03:30N 37°48' W 122°17'0 0.0
2018-Jul-15 03:00N 37°48' W 122°17'1 2.9
2018-Jul-15 02:30N 37°48' W 122°19'4 7.5
2018-Jul-15 02:00N 37°44' W 122°20'510.9
2018-Jul-15 01:30N 37°39' W 122°19'5 1.9
2018-Jul-14 22:48N 37°35' W 122°15'2 5.6
2018-Jul-14 22:22N 37°36' W 122°17'4 8.6
2018-Jul-14 21:53N 37°40' W 122°19'4 9.3
2018-Jul-14 21:30N 37°44' W 122°20'4 8.7
2018-Jul-14 21:00N 37°48' W 122°20'2 4.0
2018-Jul-14 20:30N 37°48' W 122°17'0 0.0
2018-Jul-14 20:00N 37°48' W 122°17'0 0.0
2018-Jul-14 19:30N 37°48' W 122°17'0 0.0
2018-Jul-14 19:00N 37°48' W 122°17'0 0.0
2018-Jul-14 18:30N 37°48' W 122°17'0 0.0
2018-Jul-14 18:00N 37°48' W 122°17'0 0.0
2018-Jul-14 17:30N 37°48' W 122°17'0 0.0
2018-Jul-14 17:00N 37°48' W 122°17'0 0.0
2018-Jul-14 16:30N 37°48' W 122°17'0 0.0
2018-Jul-14 16:00N 37°48' W 122°17'0 0.0
2018-Jul-14 15:30N 37°48' W 122°17'0 0.0
2018-Jul-14 15:00N 37°48' W 122°17'0 0.0
2018-Jul-14 14:31N 37°48' W 122°17'2 1.9
2018-Jul-14 13:30N 37°48' W 122°20'3 5.4
2018-Jul-14 13:01N 37°48' W 122°23'0 0.5
2018-Jul-14 12:31N 37°48' W 122°23'2 3.3
2018-Jul-14 12:00N 37°48' W 122°21'3 5.5
2018-Jul-14 11:30N 37°48' W 122°17'0 0.0
2018-Jul-14 11:00N 37°48' W 122°17'0 0.0
2018-Jul-14 10:30N 37°48' W 122°17'0 0.0
2018-Jul-14 10:00N 37°48' W 122°17'0 0.0
2018-Jul-14 09:30N 37°48' W 122°17'0 0.0
2018-Jul-14 09:00N 37°48' W 122°17'0 0.0
2018-Jul-14 08:30N 37°48' W 122°17'0 0.0
2018-Jul-14 08:00N 37°48' W 122°17'0 0.0
2018-Jul-14 07:30N 37°48' W 122°17'0 0.0
2018-Jul-14 07:00N 37°48' W 122°17'3 6.4
2018-Jul-14 06:30N 37°47' W 122°21'1 2.3
2018-Jul-14 06:00N 37°46' W 122°22'3 5.1
2018-Jul-14 05:30N 37°48' W 122°23'2 4.8
2018-Jul-14 05:00N 37°49' W 122°20'0 0.0
2018-Jul-14 04:30N 37°49' W 122°20'0 0.0
2018-Jul-14 04:00N 37°49' W 122°20'0 0.0
2018-Jul-14 03:30N 37°49' W 122°20'0 0.0
2018-Jul-14 03:00N 37°49' W 122°20'0 0.0
2018-Jul-14 02:30N 37°49' W 122°20'0 0.0
2018-Jul-14 02:00N 37°49' W 122°20'1 2.0
2018-Jul-14 01:30N 37°48' W 122°19'0 0.2
2018-Jul-14 01:00N 37°48' W 122°19'3 5.5
2018-Jul-14 00:30N 37°48' W 122°23'1 2.0
2018-Jul-14 00:00N 37°48' W 122°22'2 3.7
2018-Jul-13 23:30N 37°48' W 122°19'1 1.7
2018-Jul-13 23:00N 37°48' W 122°18'0 0.7
2018-Jul-13 22:30N 37°48' W 122°18'2 3.7
2018-Jul-13 22:00N 37°48' W 122°20'2 4.2
2018-Jul-13 21:30N 37°48' W 122°23'2 3.6
2018-Jul-13 21:00N 37°48' W 122°21'0 0.0
2018-Jul-13 20:30N 37°48' W 122°21'0 0.0
2018-Jul-13 20:00N 37°48' W 122°21'0 0.0
2018-Jul-13 19:30N 37°48' W 122°21'0 0.0
2018-Jul-13 19:00N 37°48' W 122°21'3 5.4
2018-Jul-13 18:30N 37°48' W 122°17'0 0.2
2018-Jul-13 18:00N 37°48' W 122°17'0 0.0
2018-Jul-13 17:30N 37°48' W 122°17'0 0.0
2018-Jul-13 17:00N 37°48' W 122°17'0 0.0
2018-Jul-13 16:30N 37°48' W 122°17'0 0.0
2018-Jul-13 16:00N 37°48' W 122°17'0 0.0
2018-Jul-13 15:30N 37°48' W 122°17'0 0.0
2018-Jul-13 15:00N 37°48' W 122°17'2 1.5
2018-Jul-13 14:01N 37°48' W 122°19'1 1.4
2018-Jul-13 13:30N 37°48' W 122°20'2 4.2
2018-Jul-13 13:00N 37°48' W 122°23'2 3.2
2018-Jul-13 12:30N 37°48' W 122°21'3 5.5
2018-Jul-13 12:00N 37°48' W 122°17'0 0.0
2018-Jul-13 11:30N 37°48' W 122°17'0 0.0
2018-Jul-13 11:00N 37°48' W 122°17'0 0.0
2018-Jul-13 10:30N 37°48' W 122°17'0 0.0
2018-Jul-13 10:00N 37°48' W 122°17'0 0.0
2018-Jul-13 09:30N 37°48' W 122°17'0 0.0
2018-Jul-13 09:00N 37°48' W 122°17'0 0.0
2018-Jul-13 08:30N 37°48' W 122°17'0 0.0
2018-Jul-13 08:00N 37°48' W 122°17'0 0.0
2018-Jul-13 07:30N 37°48' W 122°17'0 0.0
2018-Jul-13 07:00N 37°48' W 122°17'0 0.0
2018-Jul-13 06:30N 37°48' W 122°17'0 0.0
2018-Jul-13 06:00N 37°48' W 122°17'0 0.0
2018-Jul-13 05:30N 37°48' W 122°17'0 0.0
2018-Jul-13 05:00N 37°48' W 122°17'0 0.0
2018-Jul-13 04:30N 37°48' W 122°17'0 0.0
2018-Jul-13 04:00N 37°48' W 122°17'0 0.0
2018-Jul-13 03:30N 37°48' W 122°17'0 0.0
2018-Jul-13 03:00N 37°48' W 122°17'0 0.0
2018-Jul-13 02:30N 37°48' W 122°17'0 0.0
2018-Jul-13 02:00N 37°48' W 122°17'1 3.0
2018-Jul-13 01:30N 37°48' W 122°19'1 2.6
2018-Jul-13 01:00N 37°48' W 122°20'0 0.1
2018-Jul-13 00:30N 37°48' W 122°20'3 5.4
2018-Jul-13 00:00N 37°48' W 122°17'0 0.0
2018-Jul-12 23:30N 37°48' W 122°17'0 0.0
2018-Jul-12 23:00N 37°48' W 122°17'0 0.0
2018-Jul-12 22:30N 37°48' W 122°17'0 0.0
2018-Jul-12 22:00N 37°48' W 122°17'0 0.0
2018-Jul-12 21:30N 37°48' W 122°17'0 0.0
2018-Jul-12 21:00N 37°48' W 122°17'0 0.0
2018-Jul-12 20:30N 37°48' W 122°17'0 0.0
2018-Jul-12 20:00N 37°48' W 122°17'0 0.0
2018-Jul-12 19:30N 37°48' W 122°17'0 0.0
2018-Jul-12 19:00N 37°48' W 122°17'0 0.0
2018-Jul-12 18:30N 37°48' W 122°17'0 0.0
2018-Jul-12 18:00N 37°48' W 122°17'0 0.0
2018-Jul-12 17:30N 37°48' W 122°17'0 0.0
2018-Jul-12 17:00N 37°48' W 122°17'0 0.0
2018-Jul-12 16:29N 37°48' W 122°17'  
Track history (hours):
 
Tides and Currents Weather Stations Pressure Air Temp Water Temp Dewpoint Dewpoint Depression Visibility Wind Speed Wind Dir Waves Ship Positions

Ahbra Franco

Owner: Harley Marine Services, Inc, Seattle, WA. More information available from US FCC via Universal Licensing System and Coast Guard Vessel Documentation Center.

Last reported at 2018-Jul-22 16:25 UTC. Time now 2018-Jul-22 16:39 UTC.
Position N 38°03' W 122°15'.

Length 33 m; draft 6.1 m.

Type: Tug. MMSI: 367581220.

Date/timePositionNaut miles runAvg speedWind from/ knotsBaromVisibWave heightAir tempDewpointWater temp
2018-Jul-22 16:25N 38°03' W 122°15'0 0.0
2018-Jul-22 15:58N 38°03' W 122°15'0 0.0
2018-Jul-22 14:41N 38°03' W 122°15'0 0.3
2018-Jul-22 14:30N 38°03' W 122°15'0 0.8
2018-Jul-22 14:00N 38°04' W 122°15'4 0.4
2018-Jul-22 04:33N 38°03' W 122°10'111.1
2018-Jul-22 04:30N 38°03' W 122°11'4 7.6
2018-Jul-22 04:00N 38°03' W 122°16'3 6.9
2018-Jul-22 03:30N 38°03' W 122°20'611.1
2018-Jul-22 03:00N 37°59' W 122°25'510.8
2018-Jul-22 02:30N 37°54' W 122°25'5 9.9
2018-Jul-22 02:00N 37°50' W 122°22'4 8.2
2018-Jul-22 01:30N 37°48' W 122°17'0 0.3
2018-Jul-22 01:00N 37°48' W 122°17'0 0.0
2018-Jul-22 00:30N 37°48' W 122°17'0 0.0
2018-Jul-22 00:00N 37°48' W 122°17'0 0.0
2018-Jul-21 23:30N 37°48' W 122°17'0 0.0
2018-Jul-21 23:00N 37°48' W 122°17'0 0.0
2018-Jul-21 22:30N 37°48' W 122°17'0 0.0
2018-Jul-21 22:00N 37°48' W 122°17'0 0.0
2018-Jul-21 21:30N 37°48' W 122°17'0 0.0
2018-Jul-21 21:00N 37°48' W 122°17'0 0.0
2018-Jul-21 20:30N 37°48' W 122°17'0 0.0
2018-Jul-21 20:00N 37°48' W 122°17'0 0.0
2018-Jul-21 19:30N 37°48' W 122°17'0 0.0
2018-Jul-21 19:00N 37°48' W 122°17'0 0.0
2018-Jul-21 18:30N 37°48' W 122°17'0 0.0
2018-Jul-21 18:00N 37°48' W 122°17'0 0.0
2018-Jul-21 17:30N 37°48' W 122°17'0 0.0
2018-Jul-21 17:00N 37°48' W 122°17'0 0.0
2018-Jul-21 16:30N 37°48' W 122°17'0 0.0
2018-Jul-21 16:00N 37°48' W 122°17'0 0.0
2018-Jul-21 15:30N 37°48' W 122°17'0 0.0
2018-Jul-21 15:00N 37°48' W 122°17'0 0.0
2018-Jul-21 14:30N 37°48' W 122°17'0 0.0
2018-Jul-21 14:00N 37°48' W 122°17'3 5.3
2018-Jul-21 13:31N 37°49' W 122°20'0 0.8
2018-Jul-21 13:01N 37°49' W 122°20'0 0.4
2018-Jul-21 12:31N 37°49' W 122°20'2 3.3
2018-Jul-21 12:00N 37°48' W 122°22'4 7.7
2018-Jul-21 11:30N 37°48' W 122°17'0 0.0
2018-Jul-21 11:00N 37°48' W 122°17'0 0.0
2018-Jul-21 10:30N 37°48' W 122°17'0 0.0
2018-Jul-21 10:00N 37°48' W 122°17'0 0.0
2018-Jul-21 09:30N 37°48' W 122°17'0 0.0
2018-Jul-21 09:00N 37°48' W 122°17'0 0.0
2018-Jul-21 08:30N 37°48' W 122°17'0 0.0
2018-Jul-21 08:00N 37°48' W 122°17'0 0.0
2018-Jul-21 07:30N 37°48' W 122°17'0 0.0
2018-Jul-21 07:00N 37°48' W 122°17'0 0.0
2018-Jul-21 06:30N 37°48' W 122°17'0 0.0
2018-Jul-21 06:00N 37°48' W 122°17'0 0.0
2018-Jul-21 05:30N 37°48' W 122°17'0 0.0
2018-Jul-21 05:00N 37°48' W 122°17'0 0.0
2018-Jul-21 04:30N 37°48' W 122°17'0 0.0
2018-Jul-21 04:00N 37°48' W 122°17'0 0.0
2018-Jul-21 03:30N 37°48' W 122°17'0 0.0
2018-Jul-21 03:00N 37°48' W 122°17'0 0.0
2018-Jul-21 02:30N 37°48' W 122°17'0 0.0
2018-Jul-21 02:00N 37°48' W 122°17'0 0.0
2018-Jul-21 01:30N 37°48' W 122°17'0 0.0
2018-Jul-21 01:00N 37°48' W 122°17'0 0.0
2018-Jul-21 00:30N 37°48' W 122°17'0 0.0
2018-Jul-21 00:00N 37°48' W 122°17'0 0.0
2018-Jul-20 23:30N 37°48' W 122°17'0 0.0
2018-Jul-20 23:00N 37°48' W 122°17'0 0.0
2018-Jul-20 22:30N 37°48' W 122°17'0 0.0
2018-Jul-20 22:00N 37°48' W 122°17'0 0.0
2018-Jul-20 21:30N 37°48' W 122°17'0 0.0
2018-Jul-20 21:00N 37°48' W 122°17'0 0.0
2018-Jul-20 20:30N 37°48' W 122°17'0 0.0
2018-Jul-20 20:00N 37°48' W 122°17'0 0.0
2018-Jul-20 15:56N 37°48' W 122°17'0 0.0
2018-Jul-20 15:30N 37°48' W 122°17'0 0.0
2018-Jul-20 15:00N 37°48' W 122°17'0 0.0
2018-Jul-20 14:30N 37°48' W 122°17'3 6.0
2018-Jul-20 14:00N 37°48' W 122°21'3 6.8
2018-Jul-20 13:30N 37°45' W 122°23'0 0.5
2018-Jul-20 13:00N 37°45' W 122°22'2 4.8
2018-Jul-20 12:30N 37°48' W 122°23'3 5.7
2018-Jul-20 12:00N 37°48' W 122°19'2 3.4
2018-Jul-20 11:30N 37°48' W 122°17'0 0.0
2018-Jul-20 11:00N 37°48' W 122°17'0 0.0
2018-Jul-20 10:30N 37°48' W 122°17'0 0.0
2018-Jul-20 10:00N 37°48' W 122°17'0 0.0
2018-Jul-20 09:30N 37°48' W 122°17'0 0.0
2018-Jul-20 09:00N 37°48' W 122°17'0 0.0
2018-Jul-20 08:30N 37°48' W 122°17'0 0.0
2018-Jul-20 08:00N 37°48' W 122°17'0 0.0
2018-Jul-20 07:30N 37°48' W 122°17'0 0.0
2018-Jul-20 07:00N 37°48' W 122°17'0 0.0
2018-Jul-20 06:30N 37°48' W 122°17'0 0.0
2018-Jul-20 06:00N 37°48' W 122°17'0 0.0
2018-Jul-20 05:30N 37°48' W 122°17'0 0.0
2018-Jul-20 05:00N 37°48' W 122°17'0 0.0
2018-Jul-20 04:30N 37°48' W 122°17'1 1.0
2018-Jul-20 04:00N 37°48' W 122°18'1 1.1
2018-Jul-20 03:30N 37°48' W 122°18'1 1.8
2018-Jul-20 03:00N 37°48' W 122°17'1 1.2
2018-Jul-20 02:30N 37°48' W 122°18'2 3.7
2018-Jul-20 02:00N 37°48' W 122°20'1 1.3
2018-Jul-20 01:30N 37°48' W 122°21'3 6.4
2018-Jul-20 01:00N 37°48' W 122°17'0 0.0
2018-Jul-20 00:30N 37°48' W 122°17'0 0.0
2018-Jul-20 00:00N 37°48' W 122°17'0 0.0
2018-Jul-19 23:30N 37°48' W 122°17'0 0.0
2018-Jul-19 23:00N 37°48' W 122°17'0 0.0
2018-Jul-19 22:30N 37°48' W 122°17'0 0.0
2018-Jul-19 22:00N 37°48' W 122°17'0 0.0
2018-Jul-19 21:30N 37°48' W 122°17'0 0.2
2018-Jul-19 21:00N 37°47' W 122°17'0 0.0
2018-Jul-19 20:30N 37°47' W 122°17'0 0.1
2018-Jul-19 20:00N 37°48' W 122°17'5 9.4
2018-Jul-19 19:30N 37°49' W 122°23'510.8
2018-Jul-19 19:00N 37°54' W 122°25'611.1
2018-Jul-19 18:30N 37°60' W 122°25'811.5
2018-Jul-19 17:47N 38°04' W 122°16'312.2
2018-Jul-19 17:30N 38°03' W 122°11'5 9.6
2018-Jul-19 16:57N 38°03' W 122°05'4 9.8
2018-Jul-19 16:30N 38°04' W 121°59'5 9.2
2018-Jul-19 16:00N 38°03' W 121°53'5 8.2
2018-Jul-19 15:22N 38°01' W 121°47'0 0.0
2018-Jul-19 14:54N 38°01' W 121°47'1 1.5
2018-Jul-19 14:00N 38°01' W 121°49'3 6.6
2018-Jul-19 13:29N 38°02' W 121°53'12 5.6
2018-Jul-19 11:17N 38°02' W 122°08'710.0
2018-Jul-19 10:38N 38°03' W 122°17'210.6
2018-Jul-19 10:29N 38°03' W 122°19'511.1
2018-Jul-19 10:00N 38°00' W 122°24'510.9
2018-Jul-19 09:30N 37°55' W 122°25'2 4.7
2018-Jul-19 09:00N 37°55' W 122°22'0 0.0
2018-Jul-19 08:30N 37°55' W 122°22'0 0.0
2018-Jul-19 08:00N 37°55' W 122°22'0 0.0
2018-Jul-19 07:30N 37°55' W 122°22'0 0.0
2018-Jul-19 07:00N 37°55' W 122°22'0 0.0
2018-Jul-19 06:30N 37°55' W 122°22'0 0.0
2018-Jul-19 06:00N 37°55' W 122°22'0 0.0
2018-Jul-19 05:30N 37°55' W 122°22'0 0.0
2018-Jul-19 05:00N 37°55' W 122°22'0 0.0
2018-Jul-19 04:30N 37°55' W 122°22'0 0.0
2018-Jul-19 04:00N 37°55' W 122°22'0 0.0
2018-Jul-19 03:30N 37°55' W 122°22'0 0.0
2018-Jul-19 03:00N 37°55' W 122°22'0 0.0
2018-Jul-19 02:30N 37°55' W 122°22'0 0.0
2018-Jul-19 02:00N 37°55' W 122°22'0 0.0
2018-Jul-19 01:30N 37°55' W 122°22'1 2.3
2018-Jul-19 01:00N 37°54' W 122°23'1 2.2
2018-Jul-19 00:30N 37°55' W 122°22'3 5.4
2018-Jul-19 00:00N 37°54' W 122°25'510.2
2018-Jul-18 23:30N 37°50' W 122°22'2 3.1
2018-Jul-18 23:00N 37°49' W 122°20'1 1.5
2018-Jul-18 22:31N 37°49' W 122°19'2 4.5
2018-Jul-18 22:00N 37°48' W 122°22'3 6.9
2018-Jul-18 21:30N 37°48' W 122°18'1 1.3
2018-Jul-18 21:00N 37°48' W 122°17'0 0.0
2018-Jul-18 20:30N 37°48' W 122°17'0 0.0
2018-Jul-18 20:00N 37°48' W 122°17'0 0.0
2018-Jul-18 19:30N 37°48' W 122°17'0 0.0
2018-Jul-18 19:00N 37°48' W 122°17'0 0.0
2018-Jul-18 18:30N 37°48' W 122°17'0 0.0
2018-Jul-18 18:00N 37°48' W 122°17'0 0.0
2018-Jul-18 17:30N 37°48' W 122°17'0 0.0
2018-Jul-18 17:00N 37°48' W 122°17'0 0.0
2018-Jul-18 16:30N 37°48' W 122°17'0 0.0
2018-Jul-18 16:00N 37°48' W 122°17'0 0.0
2018-Jul-18 15:30N 37°48' W 122°17'0 0.0
2018-Jul-18 15:00N 37°48' W 122°17'0 0.0
2018-Jul-18 14:30N 37°48' W 122°17'0 0.0
2018-Jul-18 13:30N 37°48' W 122°17'0 0.0
2018-Jul-18 13:00N 37°48' W 122°17'2 3.2
2018-Jul-18 12:30N 37°48' W 122°19'0 0.4
2018-Jul-18 12:00N 37°48' W 122°19'3 5.9
2018-Jul-18 11:30N 37°47' W 122°23'4 3.8
2018-Jul-18 10:30N 37°48' W 122°18'1 1.6
2018-Jul-18 10:00N 37°48' W 122°17'0 0.0
2018-Jul-18 09:30N 37°48' W 122°17'0 0.0
2018-Jul-18 09:00N 37°48' W 122°17'0 0.0
2018-Jul-18 08:30N 37°48' W 122°17'0 0.0
2018-Jul-18 08:00N 37°48' W 122°17'0 0.0
2018-Jul-18 07:30N 37°48' W 122°17'0 0.0
2018-Jul-18 07:00N 37°48' W 122°17'3 6.2
2018-Jul-18 06:30N 37°46' W 122°21'1 1.6
2018-Jul-18 06:00N 37°46' W 122°21'4 8.7
2018-Jul-18 05:30N 37°49' W 122°26'4 7.7
2018-Jul-18 05:00N 37°49' W 122°31'1 1.3
2018-Jul-18 04:30N 37°49' W 122°31'0 0.3
2018-Jul-18 04:00N 37°49' W 122°31'1 3.0
2018-Jul-18 03:30N 37°49' W 122°29'510.7
2018-Jul-18 03:00N 37°48' W 122°23'2 4.2
2018-Jul-18 02:30N 37°49' W 122°20'0 0.0
2018-Jul-18 02:00N 37°49' W 122°20'0 0.0
2018-Jul-18 01:30N 37°49' W 122°20'0 0.0
2018-Jul-18 01:00N 37°49' W 122°20'0 0.0
2018-Jul-18 00:30N 37°49' W 122°20'2 3.2
2018-Jul-18 00:00N 37°48' W 122°19'0 0.1
2018-Jul-17 23:30N 37°48' W 122°19'0 0.9
2018-Jul-17 23:00N 37°48' W 122°19'1 2.3
2018-Jul-17 22:30N 37°49' W 122°20'0 0.0
2018-Jul-17 21:58N 37°49' W 122°20'0 0.0
2018-Jul-17 21:30N 37°49' W 122°20'2 3.4
2018-Jul-17 21:00N 37°47' W 122°21'4 7.8
2018-Jul-17 20:30N 37°43' W 122°20'4 8.0
2018-Jul-17 19:59N 37°39' W 122°19'4 8.4
2018-Jul-17 19:30N 37°36' W 122°16'2 0.9
2018-Jul-17 16:59N 37°37' W 122°18'5 9.1
2018-Jul-17 16:29N 37°42' W 122°20'4 8.8
2018-Jul-17 16:00N 37°46' W 122°21'3 5.7
2018-Jul-17 15:30N 37°48' W 122°18'1 1.5
2018-Jul-17 15:00N 37°48' W 122°17'0 0.0
2018-Jul-17 14:30N 37°48' W 122°17'0 0.0
2018-Jul-17 14:00N 37°48' W 122°17'0 0.0
2018-Jul-17 13:30N 37°48' W 122°17'0 0.0
2018-Jul-17 13:01N 37°48' W 122°17'0 0.0
2018-Jul-17 12:30N 37°48' W 122°17'0 0.0
2018-Jul-17 12:00N 37°48' W 122°17'0 0.8
2018-Jul-17 11:30N 37°48' W 122°18'4 8.8
2018-Jul-17 11:00N 37°49' W 122°23'5 9.2
2018-Jul-17 10:30N 37°53' W 122°25'4 7.7
2018-Jul-17 10:00N 37°57' W 122°26'4 7.6
2018-Jul-17 09:30N 38°01' W 122°24'4 8.4
2018-Jul-17 09:00N 38°03' W 122°20'5 9.4
2018-Jul-17 08:30N 38°04' W 122°14'5 9.1
2018-Jul-17 08:00N 38°02' W 122°08'0 0.0
2018-Jul-17 06:24N 38°02' W 122°08'0 0.0
2018-Jul-17 05:59N 38°02' W 122°08'0 0.0
2018-Jul-17 05:30N 38°02' W 122°08'0 0.0
2018-Jul-17 05:00N 38°02' W 122°08'0 0.4
2018-Jul-17 04:30N 38°02' W 122°08'4 7.6
2018-Jul-17 04:00N 38°04' W 122°13'2 4.3
2018-Jul-17 03:30N 38°03' W 122°16'5 8.2
2018-Jul-17 02:57N 38°02' W 122°21'4 9.2
2018-Jul-17 02:30N 37°59' W 122°25'4 8.8
2018-Jul-17 02:00N 37°55' W 122°25'5 9.7
2018-Jul-17 01:30N 37°51' W 122°23'510.2
2018-Jul-17 01:00N 37°48' W 122°18'0 0.4
2018-Jul-17 00:30N 37°48' W 122°18'7 7.0
2018-Jul-16 23:30N 37°41' W 122°20'6 9.4
2018-Jul-16 22:54N 37°36' W 122°16'3 8.7
2018-Jul-16 22:30N 37°34' W 122°12'3 5.8
2018-Jul-16 22:00N 37°31' W 122°13'0 0.5
2018-Jul-16 21:14N 37°31' W 122°12'1 5.4
2018-Jul-16 20:59N 37°32' W 122°12'3 5.7
2018-Jul-16 20:24N 37°35' W 122°15'0 0.5
2018-Jul-16 20:00N 37°35' W 122°15'4 6.5
2018-Jul-16 19:22N 37°38' W 122°18'3 9.6
2018-Jul-16 19:00N 37°41' W 122°20'510.6
2018-Jul-16 18:30N 37°47' W 122°21'2 3.6
2018-Jul-16 18:00N 37°48' W 122°21'0 0.0
2018-Jul-16 17:30N 37°48' W 122°21'0 0.0
2018-Jul-16 17:00N 37°48' W 122°21'0 0.0
2018-Jul-16 16:30N 37°48' W 122°21'0 0.0
2018-Jul-16 16:00N 37°48' W 122°21'0 0.0
2018-Jul-16 15:30N 37°48' W 122°21'2 4.8
2018-Jul-16 15:00N 37°48' W 122°18'0 0.3
2018-Jul-16 14:30N 37°48' W 122°17'2 3.1
2018-Jul-16 14:00N 37°48' W 122°19'1 2.9
2018-Jul-16 13:30N 37°48' W 122°18'0 1.0
2018-Jul-16 13:00N 37°48' W 122°18'0 0.9
2018-Jul-16 12:30N 37°48' W 122°18'2 3.7
2018-Jul-16 12:00N 37°48' W 122°20'2 4.7
2018-Jul-16 11:30N 37°48' W 122°23'1 1.2
2018-Jul-16 11:00N 37°48' W 122°22'3 6.3
2018-Jul-16 10:31N 37°48' W 122°18'1 1.8
2018-Jul-16 10:00N 37°48' W 122°17'0 0.0
2018-Jul-16 09:30N 37°48' W 122°17'0 0.0
2018-Jul-16 09:00N 37°48' W 122°17'0 0.0
2018-Jul-16 08:30N 37°48' W 122°17'0 0.0
2018-Jul-16 08:00N 37°48' W 122°17'0 0.0
2018-Jul-16 07:30N 37°48' W 122°17'0 0.0
2018-Jul-16 07:00N 37°48' W 122°17'0 0.0
2018-Jul-16 06:30N 37°48' W 122°17'0 0.0
2018-Jul-16 06:00N 37°48' W 122°17'0 0.0
2018-Jul-16 05:30N 37°48' W 122°17'0 0.0
2018-Jul-16 05:00N 37°48' W 122°17'0 0.0
2018-Jul-16 04:30N 37°48' W 122°17'0 0.0
2018-Jul-16 04:00N 37°48' W 122°17'0 0.0
2018-Jul-16 03:30N 37°48' W 122°17'0 0.0
2018-Jul-16 03:00N 37°48' W 122°17'0 0.9
2018-Jul-16 02:30N 37°48' W 122°18'1 2.8
2018-Jul-16 02:01N 37°48' W 122°19'1 1.1
2018-Jul-16 01:30N 37°48' W 122°20'1 2.6
2018-Jul-16 01:01N 37°48' W 122°22'0 0.5
2018-Jul-16 00:30N 37°48' W 122°21'2 4.3
2018-Jul-16 00:00N 37°48' W 122°19'1 2.0
2018-Jul-15 23:31N 37°48' W 122°17'1 2.5
2018-Jul-15 23:00N 37°48' W 122°19'0 0.6
2018-Jul-15 22:30N 37°48' W 122°19'1 2.0
2018-Jul-15 22:00N 37°48' W 122°21'0 0.0
2018-Jul-15 21:30N 37°48' W 122°21'2 3.9
2018-Jul-15 21:00N 37°46' W 122°21'4 8.0
2018-Jul-15 20:30N 37°42' W 122°20'4 8.2
2018-Jul-15 20:00N 37°38' W 122°19'5 8.0
2018-Jul-15 19:26N 37°35' W 122°15'0 0.0
2018-Jul-15 15:42N 37°35' W 122°15'3 9.5
2018-Jul-15 15:22N 37°37' W 122°17'4 9.1
2018-Jul-15 14:59N 37°40' W 122°20'5 9.4
2018-Jul-15 14:30N 37°45' W 122°21'3 6.7
2018-Jul-15 14:00N 37°48' W 122°19'2 3.4
2018-Jul-15 13:30N 37°48' W 122°17'1 1.7
2018-Jul-15 13:00N 37°48' W 122°18'1 1.2
2018-Jul-15 12:30N 37°48' W 122°19'1 1.5
2018-Jul-15 12:00N 37°48' W 122°18'1 1.9
2018-Jul-15 11:30N 37°48' W 122°19'0 0.0
2018-Jul-15 11:00N 37°48' W 122°19'0 0.1
2018-Jul-15 10:30N 37°48' W 122°19'0 0.1
2018-Jul-15 10:00N 37°48' W 122°19'0 0.3
2018-Jul-15 09:30N 37°48' W 122°19'2 3.0
2018-Jul-15 09:00N 37°48' W 122°17'0 0.0
2018-Jul-15 08:30N 37°48' W 122°17'0 0.0
2018-Jul-15 08:00N 37°48' W 122°17'0 0.0
2018-Jul-15 07:30N 37°48' W 122°17'0 0.0
2018-Jul-15 07:00N 37°48' W 122°17'0 0.0
2018-Jul-15 06:30N 37°48' W 122°17'0 0.0
2018-Jul-15 06:00N 37°48' W 122°17'0 0.0
2018-Jul-15 05:30N 37°48' W 122°17'0 0.0
2018-Jul-15 05:00N 37°48' W 122°17'0 0.0
2018-Jul-15 04:30N 37°48' W 122°17'0 0.0
2018-Jul-15 04:00N 37°48' W 122°17'0 0.0
2018-Jul-15 03:30N 37°48' W 122°17'0 0.0
2018-Jul-15 03:00N 37°48' W 122°17'1 2.9
2018-Jul-15 02:30N 37°48' W 122°19'4 7.5
2018-Jul-15 02:00N 37°44' W 122°20'510.9
2018-Jul-15 01:30N 37°39' W 122°19'5 1.9
2018-Jul-14 22:48N 37°35' W 122°15'2 5.6
2018-Jul-14 22:22N 37°36' W 122°17'4 8.6
2018-Jul-14 21:53N 37°40' W 122°19'4 9.3
2018-Jul-14 21:30N 37°44' W 122°20'4 8.7
2018-Jul-14 21:00N 37°48' W 122°20'2 4.0
2018-Jul-14 20:30N 37°48' W 122°17'0 0.0
2018-Jul-14 20:00N 37°48' W 122°17'0 0.0
2018-Jul-14 19:30N 37°48' W 122°17'0 0.0
2018-Jul-14 19:00N 37°48' W 122°17'0 0.0
2018-Jul-14 18:30N 37°48' W 122°17'0 0.0
2018-Jul-14 18:00N 37°48' W 122°17'0 0.0
2018-Jul-14 17:30N 37°48' W 122°17'0 0.0
2018-Jul-14 17:00N 37°48' W 122°17'0 0.0
2018-Jul-14 16:30N 37°48' W 122°17'0 0.0
2018-Jul-14 16:00N 37°48' W 122°17'0 0.0
2018-Jul-14 15:30N 37°48' W 122°17'0 0.0
2018-Jul-14 15:00N 37°48' W 122°17'0 0.0
2018-Jul-14 14:31N 37°48' W 122°17'2 1.9
2018-Jul-14 13:30N 37°48' W 122°20'3 5.4
2018-Jul-14 13:01N 37°48' W 122°23'0 0.5
2018-Jul-14 12:31N 37°48' W 122°23'2 3.3
2018-Jul-14 12:00N 37°48' W 122°21'3 5.5
2018-Jul-14 11:30N 37°48' W 122°17'0 0.0
2018-Jul-14 11:00N 37°48' W 122°17'0 0.0
2018-Jul-14 10:30N 37°48' W 122°17'0 0.0
2018-Jul-14 10:00N 37°48' W 122°17'0 0.0
2018-Jul-14 09:30N 37°48' W 122°17'0 0.0
2018-Jul-14 09:00N 37°48' W 122°17'0 0.0
2018-Jul-14 08:30N 37°48' W 122°17'0 0.0
2018-Jul-14 08:00N 37°48' W 122°17'0 0.0
2018-Jul-14 07:30N 37°48' W 122°17'0 0.0
2018-Jul-14 07:00N 37°48' W 122°17'3 6.4
2018-Jul-14 06:30N 37°47' W 122°21'1 2.3
2018-Jul-14 06:00N 37°46' W 122°22'3 5.1
2018-Jul-14 05:30N 37°48' W 122°23'2 4.8
2018-Jul-14 05:00N 37°49' W 122°20'0 0.0
2018-Jul-14 04:30N 37°49' W 122°20'0 0.0
2018-Jul-14 04:00N 37°49' W 122°20'0 0.0
2018-Jul-14 03:30N 37°49' W 122°20'0 0.0
2018-Jul-14 03:00N 37°49' W 122°20'0 0.0
2018-Jul-14 02:30N 37°49' W 122°20'0 0.0
2018-Jul-14 02:00N 37°49' W 122°20'1 2.0
2018-Jul-14 01:30N 37°48' W 122°19'0 0.2
2018-Jul-14 01:00N 37°48' W 122°19'3 5.5
2018-Jul-14 00:30N 37°48' W 122°23'1 2.0
2018-Jul-14 00:00N 37°48' W 122°22'2 3.7
2018-Jul-13 23:30N 37°48' W 122°19'1 1.7
2018-Jul-13 23:00N 37°48' W 122°18'0 0.7
2018-Jul-13 22:30N 37°48' W 122°18'2 3.7
2018-Jul-13 22:00N 37°48' W 122°20'2 4.2
2018-Jul-13 21:30N 37°48' W 122°23'2 3.6
2018-Jul-13 21:00N 37°48' W 122°21'0 0.0
2018-Jul-13 20:30N 37°48' W 122°21'0 0.0
2018-Jul-13 20:00N 37°48' W 122°21'0 0.0
2018-Jul-13 19:30N 37°48' W 122°21'0 0.0
2018-Jul-13 19:00N 37°48' W 122°21'3 5.4
2018-Jul-13 18:30N 37°48' W 122°17'0 0.2
2018-Jul-13 18:00N 37°48' W 122°17'0 0.0
2018-Jul-13 17:30N 37°48' W 122°17'0 0.0
2018-Jul-13 17:00N 37°48' W 122°17'0 0.0
2018-Jul-13 16:30N 37°48' W 122°17'0 0.0
2018-Jul-13 16:00N 37°48' W 122°17'0 0.0
2018-Jul-13 15:30N 37°48' W 122°17'0 0.0
2018-Jul-13 15:00N 37°48' W 122°17'2 1.5
2018-Jul-13 14:01N 37°48' W 122°19'1 1.4
2018-Jul-13 13:30N 37°48' W 122°20'2 4.2
2018-Jul-13 13:00N 37°48' W 122°23'2 3.2
2018-Jul-13 12:30N 37°48' W 122°21'3 5.5
2018-Jul-13 12:00N 37°48' W 122°17'0 0.0
2018-Jul-13 11:30N 37°48' W 122°17'0 0.0
2018-Jul-13 11:00N 37°48' W 122°17'0 0.0
2018-Jul-13 10:30N 37°48' W 122°17'0 0.0
2018-Jul-13 10:00N 37°48' W 122°17'0 0.0
2018-Jul-13 09:30N 37°48' W 122°17'0 0.0
2018-Jul-13 09:00N 37°48' W 122°17'0 0.0
2018-Jul-13 08:30N 37°48' W 122°17'0 0.0
2018-Jul-13 08:00N 37°48' W 122°17'0 0.0
2018-Jul-13 07:30N 37°48' W 122°17'0 0.0
2018-Jul-13 07:00N 37°48' W 122°17'0 0.0
2018-Jul-13 06:30N 37°48' W 122°17'0 0.0
2018-Jul-13 06:00N 37°48' W 122°17'0 0.0
2018-Jul-13 05:30N 37°48' W 122°17'0 0.0
2018-Jul-13 05:00N 37°48' W 122°17'0 0.0
2018-Jul-13 04:30N 37°48' W 122°17'0 0.0
2018-Jul-13 04:00N 37°48' W 122°17'0 0.0
2018-Jul-13 03:30N 37°48' W 122°17'0 0.0
2018-Jul-13 03:00N 37°48' W 122°17'0 0.0
2018-Jul-13 02:30N 37°48' W 122°17'0 0.0
2018-Jul-13 02:00N 37°48' W 122°17'1 3.0
2018-Jul-13 01:30N 37°48' W 122°19'1 2.6
2018-Jul-13 01:00N 37°48' W 122°20'0 0.1
2018-Jul-13 00:30N 37°48' W 122°20'3 5.4
2018-Jul-13 00:00N 37°48' W 122°17'0 0.0
2018-Jul-12 23:30N 37°48' W 122°17'0 0.0
2018-Jul-12 23:00N 37°48' W 122°17'0 0.0
2018-Jul-12 22:30N 37°48' W 122°17'0 0.0
2018-Jul-12 22:00N 37°48' W 122°17'0 0.0
2018-Jul-12 21:30N 37°48' W 122°17'0 0.0
2018-Jul-12 21:00N 37°48' W 122°17'0 0.0
2018-Jul-12 20:30N 37°48' W 122°17'0 0.0
2018-Jul-12 20:00N 37°48' W 122°17'0 0.0
2018-Jul-12 19:30N 37°48' W 122°17'0 0.0
2018-Jul-12 19:00N 37°48' W 122°17'0 0.0
2018-Jul-12 18:30N 37°48' W 122°17'0 0.0
2018-Jul-12 18:00N 37°48' W 122°17'0 0.0
2018-Jul-12 17:30N 37°48' W 122°17'0 0.0
2018-Jul-12 17:00N 37°48' W 122°17'0 0.0
2018-Jul-12 16:29N 37°48' W 122°17'  

Dump ship's entire track history